Time;durP1;ratioP1;P1;durP2;ratioP2;P2;SDS_P1;SDS_P2;PMS_P1;PMS_P2;Temp;Humidity;BMP_temperature;BMP_pressure;BME280_temperature;BME280_humidity;BME280_pressure;Samples;Min_cycle;Max_cycle;Signal;HPM_P1;HPM_P2
2021/01/28 00:02:15;;;;;;;22.98;8.95;;;5.00;99.90;;;;;;5058982;28;20065;-82
2021/01/28 00:04:41;;;;;;;44.33;11.90;;;5.00;99.90;;;;;;5029314;28;20044;-81
2021/01/28 00:07:07;;;;;;;24.25;9.70;;;5.00;99.90;;;;;;5034188;28;20068;-82
2021/01/28 00:09:33;;;;;;;33.20;10.93;;;5.00;99.90;;;;;;5027859;28;20031;-81
2021/01/28 00:11:58;;;;;;;26.80;9.13;;;5.00;99.90;;;;;;5038891;28;20384;-81
2021/01/28 00:14:24;;;;;;;17.42;8.35;;;4.90;99.90;;;;;;5028603;28;20045;-81
2021/01/28 00:16:50;;;;;;;35.00;12.27;;;4.90;99.90;;;;;;5039846;28;20040;-81
2021/01/28 00:19:18;;;;;;;26.02;10.23;;;4.90;99.90;;;;;;5043358;28;20688;-81
2021/01/28 00:21:44;;;;;;;41.25;12.27;;;4.90;99.90;;;;;;5059779;28;20103;-81
2021/01/28 00:24:10;;;;;;;28.67;10.40;;;4.90;99.90;;;;;;5044976;28;20041;-81
2021/01/28 00:26:36;;;;;;;41.17;11.90;;;4.90;99.90;;;;;;5043521;28;20037;-81
2021/01/28 00:29:04;;;;;;;27.83;9.80;;;4.80;99.90;;;;;;5067102;28;20041;-81
2021/01/28 00:31:30;;;;;;;22.85;9.50;;;4.90;99.90;;;;;;5022379;28;20068;-81
2021/01/28 00:33:55;;;;;;;18.90;8.32;;;4.80;99.90;;;;;;5043352;28;20148;-81
2021/01/28 00:36:21;;;;;;;18.25;8.85;;;4.90;99.90;;;;;;5046911;28;20041;-81
2021/01/28 00:38:47;;;;;;;25.58;8.23;;;4.80;99.90;;;;;;5026335;28;20132;-81
2021/01/28 00:41:14;;;;;;;31.25;9.98;;;4.90;99.90;;;;;;5037467;28;20076;-81
2021/01/28 00:43:40;;;;;;;20.58;9.52;;;4.90;99.90;;;;;;5022116;28;20634;-82
2021/01/28 00:46:06;;;;;;;32.00;9.77;;;4.80;99.90;;;;;;5041337;28;20068;-82
2021/01/28 00:48:33;;;;;;;36.13;10.32;;;4.80;99.90;;;;;;5044456;28;20045;-82
2021/01/28 00:51:00;;;;;;;37.70;10.57;;;4.80;99.90;;;;;;5024392;28;20037;-81
2021/01/28 00:53:26;;;;;;;24.88;8.80;;;4.80;99.90;;;;;;5059359;28;20041;-82
2021/01/28 00:55:52;;;;;;;36.28;10.70;;;4.80;99.90;;;;;;5061360;28;20099;-81
2021/01/28 00:58:20;;;;;;;32.03;11.23;;;4.80;99.90;;;;;;5039688;28;20045;-81
2021/01/28 01:00:47;;;;;;;21.77;9.23;;;4.80;99.90;;;;;;5059806;28;20041;-82
2021/01/28 01:03:20;;;;;;;32.38;10.85;;;4.80;99.90;;;;;;5039874;28;20044;-81
2021/01/28 01:05:47;;;;;;;38.75;11.73;;;4.80;99.90;;;;;;5035926;28;20041;-81
2021/01/28 01:08:39;;;;;;;32.88;10.38;;;4.80;99.90;;;;;;5044545;28;20041;-82
2021/01/28 01:11:11;;;;;;;31.33;10.18;;;4.70;99.90;;;;;;5049714;28;20539;-82
2021/01/28 01:13:38;;;;;;;40.95;11.55;;;4.70;99.90;;;;;;5046795;28;20045;-81
2021/01/28 01:16:07;;;;;;;40.00;11.68;;;4.70;99.90;;;;;;5065904;28;20456;-81
2021/01/28 01:18:34;;;;;;;32.10;11.90;;;4.60;99.90;;;;;;5027543;28;20030;-81
2021/01/28 01:21:03;;;;;;;31.27;10.07;;;4.60;99.90;;;;;;5050730;28;20045;-82
2021/01/28 01:23:29;;;;;;;25.30;9.07;;;4.60;99.90;;;;;;5024451;28;20057;-81
2021/01/28 01:25:55;;;;;;;23.92;8.52;;;4.50;99.90;;;;;;5040574;28;20115;-82
2021/01/28 01:28:21;;;;;;;37.30;9.73;;;4.50;99.90;;;;;;5051390;28;20083;-82
2021/01/28 01:30:47;;;;;;;52.92;11.95;;;4.40;99.90;;;;;;5042363;28;20121;-83
2021/01/28 01:33:13;;;;;;;50.13;10.98;;;4.40;99.90;;;;;;5039671;28;20061;-81
2021/01/28 01:35:39;;;;;;;37.55;9.40;;;4.30;99.90;;;;;;5029617;28;20440;-81
2021/01/28 01:38:05;;;;;;;35.88;9.30;;;4.30;99.90;;;;;;5046949;28;20078;-81
2021/01/28 01:40:55;;;;;;;25.90;8.95;;;4.30;99.90;;;;;;5030448;28;20205;-81
2021/01/28 01:43:20;;;;;;;23.25;7.57;;;4.30;99.90;;;;;;5027396;28;20060;-81
2021/01/28 01:45:49;;;;;;;39.10;9.77;;;4.30;99.90;;;;;;5040467;28;20033;-82
2021/01/28 01:48:17;;;;;;;39.78;10.25;;;4.30;99.90;;;;;;5053716;28;20037;-81
2021/01/28 01:50:56;;;;;;;36.78;9.55;;;4.20;99.90;;;;;;5025847;28;20555;-82
2021/01/28 01:53:25;;;;;;;36.30;10.40;;;4.20;99.90;;;;;;5064631;28;20060;-81
2021/01/28 01:55:56;;;;;;;33.83;10.70;;;4.20;99.90;;;;;;5048899;28;20072;-81
2021/01/28 01:58:32;;;;;;;40.85;11.27;;;4.20;99.90;;;;;;5034764;28;20053;-81
2021/01/28 02:00:59;;;;;;;43.63;11.52;;;4.20;99.90;;;;;;5032491;28;20064;-81
2021/01/28 02:03:30;;;;;;;25.80;8.82;;;4.20;99.90;;;;;;5047700;28;20482;-81
2021/01/28 02:06:18;;;;;;;28.55;9.43;;;4.20;99.90;;;;;;5050530;28;20041;-81
2021/01/28 02:08:47;;;;;;;29.85;8.75;;;4.10;99.90;;;;;;5049414;28;20132;-81
2021/01/28 02:11:13;;;;;;;29.27;8.85;;;4.10;99.90;;;;;;5029525;28;20041;-81
2021/01/28 02:13:40;;;;;;;38.65;10.20;;;4.10;99.90;;;;;;5048166;28;20064;-81
2021/01/28 02:16:09;;;;;;;39.90;9.55;;;4.10;99.90;;;;;;5028331;28;20063;-81
2021/01/28 02:18:35;;;;;;;48.42;10.57;;;4.00;99.90;;;;;;5055087;28;20040;-82
2021/01/28 02:21:24;;;;;;;33.70;9.43;;;3.90;99.90;;;;;;5059286;28;20036;-82
2021/01/28 02:24:08;;;;;;;44.30;9.75;;;3.90;99.90;;;;;;5068060;28;20072;-81
2021/01/28 02:26:34;;;;;;;42.25;10.00;;;3.90;99.90;;;;;;5028318;28;20057;-81
2021/01/28 02:29:00;;;;;;;38.70;9.93;;;3.90;99.90;;;;;;5036714;28;20087;-81
2021/01/28 02:31:28;;;;;;;26.67;8.82;;;3.90;99.90;;;;;;5058638;28;20056;-81
2021/01/28 02:33:57;;;;;;;64.07;12.50;;;3.90;99.90;;;;;;5057284;28;20123;-81
2021/01/28 02:36:38;;;;;;;60.03;10.88;;;3.80;99.90;;;;;;5060511;28;20060;-81
2021/01/28 02:39:10;;;;;;;40.85;11.48;;;3.90;99.90;;;;;;5039192;28;20053;-81
2021/01/28 02:41:37;;;;;;;37.63;9.55;;;3.90;99.90;;;;;;5023537;28;20088;-81
2021/01/28 02:44:03;;;;;;;68.07;12.70;;;3.80;99.90;;;;;;5049497;28;20043;-82
2021/01/28 02:46:30;;;;;;;71.03;12.25;;;3.90;99.90;;;;;;5044360;28;20112;-81
2021/01/28 02:48:56;;;;;;;66.82;12.80;;;3.90;99.90;;;;;;5041384;28;20112;-82
2021/01/28 02:51:22;;;;;;;72.97;14.55;;;3.90;99.90;;;;;;5032160;28;20061;-82
2021/01/28 02:53:54;;;;;;;95.20;14.95;;;3.90;99.90;;;;;;5033403;28;20049;-82
2021/01/28 02:56:27;;;;;;;82.32;14.10;;;3.90;99.90;;;;;;5034663;28;20437;-82
2021/01/28 02:58:53;;;;;;;113.82;16.60;;;3.90;99.90;;;;;;5056212;28;20061;-82
2021/01/28 03:01:20;;;;;;;97.68;13.82;;;3.90;99.90;;;;;;5028713;28;20076;-81
2021/01/28 03:03:48;;;;;;;69.25;13.23;;;3.90;99.90;;;;;;5047997;28;20064;-82
2021/01/28 03:06:15;;;;;;;119.05;16.33;;;3.90;99.90;;;;;;5033676;28;20039;-82
2021/01/28 03:08:41;;;;;;;153.70;18.75;;;3.90;99.90;;;;;;5024201;28;20037;-82
2021/01/28 03:11:07;;;;;;;150.18;18.48;;;3.90;99.90;;;;;;5046539;28;20061;-82
2021/01/28 03:13:33;;;;;;;114.93;15.27;;;3.90;99.90;;;;;;5060912;28;20045;-82
2021/01/28 03:16:00;;;;;;;163.85;19.77;;;3.90;99.90;;;;;;5033957;28;20045;-82
2021/01/28 03:18:27;;;;;;;197.15;20.42;;;3.90;99.90;;;;;;5042708;28;20377;-82
2021/01/28 03:20:53;;;;;;;172.00;20.02;;;3.90;99.90;;;;;;5031220;28;20051;-82
2021/01/28 03:23:20;;;;;;;153.85;18.08;;;3.90;99.90;;;;;;5029173;28;20053;-81
2021/01/28 03:25:47;;;;;;;141.65;17.27;;;3.90;99.90;;;;;;5053069;28;20067;-81
2021/01/28 03:28:13;;;;;;;211.50;22.13;;;3.90;99.90;;;;;;5021102;28;20098;-81
2021/01/28 03:30:46;;;;;;;176.50;18.98;;;3.90;99.90;;;;;;5052376;28;20060;-81
2021/01/28 03:33:15;;;;;;;234.43;21.23;;;3.90;99.90;;;;;;5031529;28;21280;-81
2021/01/28 03:35:42;;;;;;;183.07;19.70;;;3.80;99.90;;;;;;5061308;28;20033;-81
2021/01/28 03:38:11;;;;;;;175.07;18.73;;;3.80;99.90;;;;;;5034039;28;20040;-81
2021/01/28 03:40:38;;;;;;;184.20;19.45;;;3.90;99.90;;;;;;5029500;28;20052;-82
2021/01/28 03:43:04;;;;;;;231.15;20.65;;;3.90;99.90;;;;;;5033223;28;20048;-81
2021/01/28 03:45:31;;;;;;;250.88;21.15;;;3.90;99.90;;;;;;5032482;28;20059;-81
2021/01/28 03:47:58;;;;;;;205.50;20.45;;;3.90;99.90;;;;;;5037452;28;20100;-81
2021/01/28 03:50:27;;;;;;;210.98;18.50;;;4.00;99.90;;;;;;5043424;28;20041;-83
2021/01/28 03:52:53;;;;;;;188.18;17.08;;;3.90;99.90;;;;;;5036626;28;20084;-81
2021/01/28 03:55:19;;;;;;;265.83;21.42;;;3.90;99.90;;;;;;5057269;28;20132;-82
2021/01/28 03:57:49;;;;;;;236.13;19.00;;;4.00;99.90;;;;;;5043937;28;20083;-81
2021/01/28 04:00:28;;;;;;;208.55;18.52;;;3.90;99.90;;;;;;5029491;28;20060;-81
2021/01/28 04:02:54;;;;;;;288.95;21.70;;;4.00;99.90;;;;;;5029970;28;20080;-81
2021/01/28 04:05:20;;;;;;;255.38;18.95;;;3.90;99.90;;;;;;5023997;28;20106;-81
2021/01/28 04:07:47;;;;;;;238.32;19.48;;;4.00;99.90;;;;;;5060971;28;20029;-81
2021/01/28 04:10:18;;;;;;;212.15;19.05;;;3.90;99.90;;;;;;5029091;28;20147;-81
2021/01/28 04:12:44;;;;;;;187.48;18.90;;;3.90;99.90;;;;;;5037339;28;20057;-81
2021/01/28 04:15:12;;;;;;;280.20;22.05;;;3.90;99.90;;;;;;5026634;28;20398;-81
2021/01/28 04:17:38;;;;;;;134.85;13.13;;;3.90;99.90;;;;;;5032737;28;20028;-81
2021/01/28 04:20:05;;;;;;;175.82;18.55;;;3.90;99.90;;;;;;5051394;28;20037;-81
2021/01/28 04:22:31;;;;;;;129.93;14.63;;;3.90;99.90;;;;;;5032195;28;20140;-82
2021/01/28 04:24:59;;;;;;;180.52;17.08;;;3.90;99.90;;;;;;5031182;28;20049;-82
2021/01/28 04:27:25;;;;;;;235.48;20.42;;;4.00;99.90;;;;;;5027923;28;20084;-81
2021/01/28 04:29:50;;;;;;;236.05;20.30;;;3.90;99.90;;;;;;5032822;28;20046;-82
2021/01/28 04:32:16;;;;;;;203.25;19.30;;;3.90;99.90;;;;;;5026522;28;20064;-81
2021/01/28 04:34:42;;;;;;;248.65;21.85;;;3.90;99.90;;;;;;5047158;28;20124;-81
2021/01/28 04:37:08;;;;;;;266.38;23.77;;;3.90;99.90;;;;;;5045513;28;20075;-82
2021/01/28 04:39:34;;;;;;;230.07;21.42;;;3.90;99.90;;;;;;5054824;28;20701;-81
2021/01/28 04:42:01;;;;;;;278.77;23.52;;;3.90;99.90;;;;;;5041393;28;20143;-81
2021/01/28 04:44:27;;;;;;;333.73;25.40;;;3.90;99.90;;;;;;5032893;28;20041;-81
2021/01/28 04:46:56;;;;;;;278.90;25.35;;;3.90;99.90;;;;;;5054217;28;20109;-82
2021/01/28 04:49:28;;;;;;;284.10;24.35;;;3.90;99.90;;;;;;5032681;28;20049;-81
2021/01/28 04:52:03;;;;;;;298.10;24.45;;;3.90;99.90;;;;;;5060924;28;20075;-81
2021/01/28 04:54:33;;;;;;;230.13;21.95;;;3.90;99.90;;;;;;5031398;28;20041;-81
2021/01/28 04:57:06;;;;;;;246.85;22.60;;;3.90;99.90;;;;;;5023820;28;20061;-82
2021/01/28 04:59:42;;;;;;;198.35;20.50;;;3.90;99.90;;;;;;5043167;28;20032;-81
2021/01/28 05:02:17;;;;;;;241.70;23.92;;;3.90;99.90;;;;;;5057324;28;20049;-82
2021/01/28 05:04:50;;;;;;;308.10;26.13;;;3.90;99.90;;;;;;5049033;28;20037;-81
2021/01/28 05:07:25;;;;;;;262.05;24.48;;;3.80;99.90;;;;;;5026722;28;20048;-82
2021/01/28 05:10:10;;;;;;;316.75;27.40;;;3.80;99.90;;;;;;5058546;28;20045;-81
2021/01/28 05:12:36;;;;;;;280.33;25.08;;;3.80;99.90;;;;;;5053557;28;20076;-81
2021/01/28 05:15:16;;;;;;;328.33;28.17;;;3.80;99.90;;;;;;5013663;28;20068;-81
2021/01/28 05:17:43;;;;;;;286.65;26.67;;;3.80;99.90;;;;;;5012148;28;20052;-82
2021/01/28 05:20:14;;;;;;;281.65;26.05;;;3.80;99.90;;;;;;5061953;28;20353;-82
2021/01/28 05:22:44;;;;;;;278.30;26.77;;;3.80;99.90;;;;;;5038867;28;20045;-83
2021/01/28 05:25:18;;;;;;;318.95;26.92;;;3.80;99.90;;;;;;5032006;28;20087;-83
2021/01/28 05:27:44;;;;;;;278.15;26.88;;;3.90;99.90;;;;;;5058210;28;20041;-81
2021/01/28 05:30:17;;;;;;;292.48;28.02;;;4.00;99.90;;;;;;5052322;28;20067;-81
2021/01/28 05:32:46;;;;;;;292.02;27.05;;;3.90;99.90;;;;;;5067866;28;20033;-81
2021/01/28 05:35:17;;;;;;;221.20;23.42;;;3.80;99.90;;;;;;5054148;28;20053;-81
2021/01/28 05:37:43;;;;;;;339.25;29.83;;;3.80;99.90;;;;;;5062167;28;20068;-81
2021/01/28 05:40:23;;;;;;;315.90;28.38;;;3.90;99.90;;;;;;5027931;28;20114;-81
2021/01/28 05:42:51;;;;;;;245.68;24.55;;;3.80;99.90;;;;;;5054256;28;20033;-82
2021/01/28 05:45:37;;;;;;;268.63;26.88;;;3.80;99.90;;;;;;5019760;28;20129;-81
2021/01/28 05:48:32;;;;;;;282.67;26.92;;;3.80;99.90;;;;;;5031452;28;20064;-82
2021/01/28 05:51:13;;;;;;;246.30;26.75;;;3.80;99.90;;;;;;4977308;28;20089;-81
2021/01/28 05:53:39;;;;;;;230.20;24.98;;;3.80;99.90;;;;;;4992922;28;20045;-81
2021/01/28 05:56:14;;;;;;;241.35;27.13;;;3.80;99.90;;;;;;4964998;28;20050;-82
2021/01/28 05:58:55;;;;;;;208.18;25.70;;;3.80;99.90;;;;;;4994198;28;20046;-81
2021/01/28 06:01:51;;;;;;;304.23;29.00;;;3.80;99.90;;;;;;4993655;28;20047;-82
2021/01/28 06:04:49;;;;;;;290.48;28.60;;;3.90;99.90;;;;;;4974409;28;20058;-82
2021/01/28 06:07:31;;;;;;;301.23;31.10;;;3.80;99.90;;;;;;4995739;28;20767;-81
2021/01/28 06:10:11;;;;;;;201.88;24.58;;;3.80;99.90;;;;;;4978403;28;20118;-82
2021/01/28 06:12:49;;;;;;;218.88;24.60;;;3.80;99.90;;;;;;4997186;28;20034;-81
2021/01/28 06:15:24;;;;;;;315.08;29.60;;;3.80;99.90;;;;;;4994446;28;20054;-81
2021/01/28 06:18:04;;;;;;;372.13;32.10;;;3.80;99.90;;;;;;4975027;28;20474;-81
2021/01/28 06:20:49;;;;;;;277.88;27.42;;;3.80;99.90;;;;;;4969415;28;20062;-81
2021/01/28 06:23:55;;;;;;;275.65;27.38;;;3.80;99.90;;;;;;4982208;28;20045;-81
2021/01/28 06:26:59;;;;;;;256.88;27.15;;;3.80;99.90;;;;;;4939763;28;21169;-80
2021/01/28 06:29:54;;;;;;;325.50;30.35;;;3.80;99.90;;;;;;4921295;29;20349;-80
2021/01/28 06:32:23;;;;;;;260.25;26.73;;;3.80;99.90;;;;;;4933054;29;20060;-81
2021/01/28 06:34:54;;;;;;;251.40;26.13;;;3.80;99.90;;;;;;4940123;29;20054;-81
2021/01/28 06:37:45;;;;;;;235.38;25.95;;;3.80;99.90;;;;;;4917843;29;20461;-81
2021/01/28 06:40:19;;;;;;;210.50;24.13;;;3.80;99.90;;;;;;4939973;29;20443;-81
2021/01/28 06:42:53;;;;;;;211.83;25.97;;;3.70;99.90;;;;;;4931945;29;20064;-81
2021/01/28 06:45:28;;;;;;;211.70;26.40;;;3.70;99.90;;;;;;4937324;29;20370;-81
2021/01/28 06:48:15;;;;;;;165.93;23.33;;;3.70;99.90;;;;;;4922681;29;20099;-82
2021/01/28 06:50:51;;;;;;;170.82;24.27;;;3.70;99.90;;;;;;4911281;29;20603;-81
2021/01/28 06:53:29;;;;;;;209.70;25.67;;;3.70;99.90;;;;;;4949108;28;20182;-81
2021/01/28 06:56:14;;;;;;;235.85;27.00;;;3.70;99.90;;;;;;4934421;29;20402;-81
2021/01/28 06:58:57;;;;;;;174.15;22.77;;;3.70;99.90;;;;;;4952316;28;20043;-82
2021/01/28 07:01:40;;;;;;;173.30;23.52;;;3.70;99.90;;;;;;4933868;28;20610;-81
2021/01/28 07:04:21;;;;;;;171.68;21.63;;;3.70;99.90;;;;;;4948561;28;20177;-80
2021/01/28 07:07:10;;;;;;;200.15;23.52;;;3.60;99.90;;;;;;5010180;28;20512;-80
2021/01/28 07:10:33;;;;;;;176.85;22.50;;;3.60;99.90;;;;;;5064524;28;20054;-80
2021/01/28 07:12:59;;;;;;;166.35;21.17;;;3.60;99.90;;;;;;5036155;28;20061;-80
2021/01/28 07:15:26;;;;;;;203.27;24.50;;;3.60;99.90;;;;;;5036824;28;20053;-80
2021/01/28 07:18:07;;;;;;;135.38;21.23;;;3.60;99.90;;;;;;5021648;28;20165;-80
2021/01/28 07:20:37;;;;;;;127.28;20.02;;;3.60;99.90;;;;;;5047225;28;20045;-80
2021/01/28 07:23:24;;;;;;;130.02;21.40;;;3.60;99.90;;;;;;5039044;28;20053;-80
2021/01/28 07:25:52;;;;;;;95.82;20.23;;;3.60;99.90;;;;;;5048845;28;20040;-80
2021/01/28 07:28:39;;;;;;;123.03;22.98;;;3.60;99.90;;;;;;5044180;28;20045;-80
2021/01/28 07:31:08;;;;;;;113.38;22.63;;;3.70;99.90;;;;;;4956673;28;20067;-82
2021/01/28 07:33:48;;;;;;;114.85;23.60;;;3.70;99.90;;;;;;4952584;28;20106;-81
2021/01/28 07:36:22;;;;;;;69.22;20.20;;;3.70;99.90;;;;;;4956351;28;20051;-81
2021/01/28 07:39:00;;;;;;;;;;;3.70;99.90;;;;;;4956247;28;20071;-81
2021/01/28 07:41:33;;;;;;;63.05;17.77;;;3.70;99.90;;;;;;4966526;28;19923;-82
2021/01/28 07:44:34;;;;;;;63.05;18.48;;;3.70;99.90;;;;;;4948933;28;20075;-82
2021/01/28 07:47:01;;;;;;;67.13;18.05;;;3.70;99.90;;;;;;4915566;28;20059;-81
2021/01/28 07:49:28;;;;;;;55.75;18.48;;;3.70;99.90;;;;;;4942183;29;20107;-82
2021/01/28 07:52:02;;;;;;;57.80;18.02;;;3.70;99.90;;;;;;4946502;28;20290;-83
2021/01/28 07:54:28;;;;;;;60.70;18.50;;;3.80;99.90;;;;;;4954055;28;20055;-82
2021/01/28 07:57:10;;;;;;;56.28;18.90;;;3.80;99.90;;;;;;4957633;28;20062;-82
2021/01/28 07:59:48;;;;;;;53.67;17.98;;;3.80;99.90;;;;;;4931611;28;20769;-79
2021/01/28 08:02:24;;;;;;;57.88;19.08;;;3.80;99.90;;;;;;4969277;28;20058;-81
2021/01/28 08:04:59;;;;;;;61.20;19.02;;;3.80;99.90;;;;;;4952816;28;20072;-81
2021/01/28 08:07:36;;;;;;;53.65;19.38;;;3.80;99.90;;;;;;4955311;28;20671;-80
2021/01/28 08:10:27;;;;;;;46.92;17.77;;;3.80;99.90;;;;;;5043833;28;20049;-81
2021/01/28 08:13:14;;;;;;;46.90;17.77;;;3.80;99.90;;;;;;5045834;28;20056;-81
2021/01/28 08:15:52;;;;;;;46.75;18.40;;;3.80;99.90;;;;;;5039131;28;20051;-81
2021/01/28 08:18:27;;;;;;;50.22;17.67;;;3.80;99.90;;;;;;5034994;28;20075;-80
2021/01/28 08:21:20;;;;;;;54.95;19.30;;;3.80;99.90;;;;;;5045529;28;20056;-81
2021/01/28 08:23:46;;;;;;;46.33;18.02;;;3.80;99.90;;;;;;5063923;28;20105;-81
2021/01/28 08:26:22;;;;;;;44.75;17.45;;;3.80;99.90;;;;;;5042129;28;20045;-82
2021/01/28 08:28:48;;;;;;;43.92;18.45;;;3.90;99.90;;;;;;5070233;28;20840;-80
2021/01/28 08:31:31;;;;;;;38.67;17.77;;;3.80;99.90;;;;;;5050115;28;20107;-81
2021/01/28 08:33:59;;;;;;;42.40;17.45;;;3.90;99.90;;;;;;5027188;28;20041;-80
2021/01/28 08:36:27;;;;;;;45.55;18.73;;;4.00;99.90;;;;;;5039235;28;20091;-81
2021/01/28 08:39:14;;;;;;;44.38;17.80;;;4.00;99.90;;;;;;5046934;28;20096;-80
2021/01/28 08:41:40;;;;;;;39.13;16.95;;;4.00;99.90;;;;;;5028619;28;20085;-80
2021/01/28 08:44:10;;;;;;;42.60;18.58;;;4.00;99.90;;;;;;5028100;28;20056;-81
2021/01/28 08:46:38;;;;;;;38.08;17.83;;;4.00;99.90;;;;;;5023611;28;20119;-82
2021/01/28 08:49:30;;;;;;;34.10;16.40;;;4.00;99.90;;;;;;5014640;28;20084;-81
2021/01/28 08:52:04;;;;;;;35.28;15.88;;;4.00;99.90;;;;;;5021580;28;20107;-81
2021/01/28 08:54:32;;;;;;;39.70;16.40;;;4.10;99.90;;;;;;5032996;28;20036;-81
2021/01/28 08:57:00;;;;;;;40.13;17.65;;;4.00;99.90;;;;;;5045854;28;20107;-81
2021/01/28 08:59:50;;;;;;;36.55;17.70;;;4.00;99.90;;;;;;5044295;28;20060;-81
2021/01/28 09:02:44;;;;;;;42.28;17.90;;;4.10;99.90;;;;;;5014534;28;20045;-79
2021/01/28 09:05:24;;;;;;;35.55;16.98;;;4.10;99.90;;;;;;5043018;28;20114;-80
2021/01/28 09:07:57;;;;;;;28.48;16.27;;;4.10;99.90;;;;;;5033226;28;20042;-80
2021/01/28 09:10:37;;;;;;;27.83;15.82;;;4.10;99.90;;;;;;5041394;28;20139;-82
2021/01/28 09:13:22;;;;;;;31.55;15.80;;;4.10;99.90;;;;;;5043436;28;20120;-81
2021/01/28 09:16:04;;;;;;;30.20;15.48;;;4.10;99.90;;;;;;5042755;28;20042;-80
2021/01/28 09:18:33;;;;;;;27.23;15.20;;;4.10;99.90;;;;;;5016114;28;20115;-78
2021/01/28 09:21:19;;;;;;;23.40;14.02;;;4.20;99.90;;;;;;5027433;28;20048;-78
2021/01/28 09:24:03;;;;;;;22.95;13.45;;;4.10;99.90;;;;;;5041875;28;20045;-79
2021/01/28 09:26:32;;;;;;;26.45;15.02;;;4.10;99.90;;;;;;5043644;28;20813;-79
2021/01/28 09:29:22;;;;;;;27.90;14.30;;;4.10;99.90;;;;;;5044897;28;20373;-79
2021/01/28 09:31:50;;;;;;;25.55;14.70;;;4.20;99.90;;;;;;5046012;28;20064;-81
2021/01/28 09:34:32;;;;;;;24.35;13.90;;;4.10;99.90;;;;;;5027070;28;20093;-79
2021/01/28 09:37:19;;;;;;;26.98;14.00;;;4.10;99.90;;;;;;5042910;28;20056;-80
2021/01/28 09:39:45;;;;;;;23.98;13.02;;;4.10;99.90;;;;;;5028893;28;20045;-78
2021/01/28 09:42:30;;;;;;;29.00;14.35;;;4.10;99.90;;;;;;5047664;28;20116;-78
2021/01/28 09:45:09;;;;;;;33.03;16.17;;;4.10;99.90;;;;;;5036471;28;20385;-79
2021/01/28 09:47:36;;;;;;;28.33;14.90;;;4.10;99.90;;;;;;5045728;28;20139;-79
2021/01/28 09:50:08;;;;;;;31.38;16.00;;;4.20;99.90;;;;;;5028995;28;20034;-79
2021/01/28 09:52:36;;;;;;;32.92;16.77;;;4.20;99.90;;;;;;5037741;28;20051;-82
2021/01/28 09:55:08;;;;;;;35.47;15.48;;;4.10;99.90;;;;;;5027142;28;20041;-79
2021/01/28 09:57:35;;;;;;;26.98;14.63;;;4.20;99.90;;;;;;5035117;28;20072;-79
2021/01/28 10:00:04;;;;;;;25.75;15.27;;;4.10;99.90;;;;;;5029407;28;20045;-79
2021/01/28 10:02:56;;;;;;;31.05;16.05;;;4.20;99.90;;;;;;5041213;28;20617;-78
2021/01/28 10:05:25;;;;;;;20.70;12.30;;;4.20;99.90;;;;;;5062402;28;20068;-80
2021/01/28 10:07:51;;;;;;;24.17;14.68;;;4.10;99.90;;;;;;5051885;28;20045;-81
2021/01/28 10:10:19;;;;;;;23.95;14.48;;;4.20;99.90;;;;;;5061874;28;20048;-81
2021/01/28 10:12:45;;;;;;;24.02;13.88;;;4.20;99.90;;;;;;5050709;28;20103;-79
2021/01/28 10:15:12;;;;;;;22.75;13.32;;;4.10;99.90;;;;;;5041954;28;20047;-80
2021/01/28 10:17:38;;;;;;;23.10;13.07;;;4.10;99.90;;;;;;5016786;28;20045;-79
2021/01/28 10:20:05;;;;;;;18.63;9.82;;;4.10;99.90;;;;;;5040077;28;20381;-81
2021/01/28 10:22:36;;;;;;;16.80;10.80;;;4.10;99.70;;;;;;5040672;28;20037;-79
2021/01/28 10:25:03;;;;;;;16.30;10.98;;;4.10;99.70;;;;;;5035438;28;20742;-79
2021/01/28 10:27:29;;;;;;;16.30;11.02;;;4.00;99.30;;;;;;5050433;28;20044;-79
2021/01/28 10:29:56;;;;;;;22.88;12.55;;;4.10;99.40;;;;;;5044130;28;20118;-79
2021/01/28 10:32:21;;;;;;;22.23;12.73;;;4.00;99.40;;;;;;5045573;28;20038;-80
2021/01/28 10:34:47;;;;;;;19.85;12.45;;;4.00;99.40;;;;;;5043019;28;20029;-81
2021/01/28 10:37:13;;;;;;;18.08;11.23;;;4.00;99.30;;;;;;5024478;28;20063;-80
2021/01/28 10:39:39;;;;;;;18.92;10.65;;;4.00;99.20;;;;;;5060525;28;20437;-80
2021/01/28 10:42:06;;;;;;;18.85;11.02;;;4.00;99.10;;;;;;5049880;28;20076;-81
2021/01/28 10:44:32;;;;;;;16.60;11.30;;;4.00;99.00;;;;;;5028865;28;20469;-82
2021/01/28 10:46:58;;;;;;;16.10;11.85;;;4.00;98.80;;;;;;5056564;28;20504;-79
2021/01/28 10:49:24;;;;;;;20.35;11.40;;;4.00;98.70;;;;;;5041350;28;20042;-80
2021/01/28 10:51:50;;;;;;;18.67;13.15;;;4.00;98.70;;;;;;5012730;28;20377;-79
2021/01/28 10:54:16;;;;;;;21.65;13.10;;;3.90;98.70;;;;;;5045059;28;20060;-78
2021/01/28 10:56:43;;;;;;;22.55;13.75;;;3.90;99.00;;;;;;5059425;28;20041;-79
2021/01/28 10:59:09;;;;;;;23.58;14.32;;;3.90;99.00;;;;;;5031063;28;20052;-79
2021/01/28 11:01:35;;;;;;;17.30;12.18;;;4.00;99.20;;;;;;5032992;28;20088;-80
2021/01/28 11:04:01;;;;;;;19.58;12.38;;;3.90;99.10;;;;;;5045190;28;20045;-80
2021/01/28 11:06:27;;;;;;;18.60;11.88;;;3.90;98.90;;;;;;5041045;28;20039;-79
2021/01/28 11:08:53;;;;;;;13.15;10.20;;;3.90;98.80;;;;;;5039309;28;20042;-78
2021/01/28 11:11:19;;;;;;;15.80;11.73;;;3.80;98.40;;;;;;5041932;28;20156;-79
2021/01/28 11:13:47;;;;;;;17.63;10.82;;;3.70;98.40;;;;;;5031083;28;20084;-79
2021/01/28 11:16:12;;;;;;;16.27;10.70;;;3.70;98.60;;;;;;5026989;28;20080;-80
2021/01/28 11:18:38;;;;;;;14.25;8.10;;;3.60;98.50;;;;;;5035852;28;20525;-78
2021/01/28 11:21:04;;;;;;;13.63;9.20;;;3.70;98.40;;;;;;5042249;28;20096;-79
2021/01/28 11:23:30;;;;;;;19.98;10.73;;;3.60;98.40;;;;;;5015855;28;20451;-79
2021/01/28 11:25:55;;;;;;;15.25;10.40;;;3.60;98.60;;;;;;5043193;28;20043;-80
2021/01/28 11:28:21;;;;;;;13.15;8.65;;;3.60;98.60;;;;;;5060557;28;20064;-80
2021/01/28 11:30:48;;;;;;;14.63;9.43;;;3.50;98.50;;;;;;5040758;28;20053;-80
2021/01/28 11:33:14;;;;;;;11.95;8.18;;;3.50;98.40;;;;;;5029206;28;20033;-80
2021/01/28 11:35:40;;;;;;;14.30;8.23;;;3.50;98.60;;;;;;5056387;28;20115;-81
2021/01/28 11:38:07;;;;;;;14.88;8.82;;;3.40;98.50;;;;;;5046486;28;20499;-80
2021/01/28 11:40:34;;;;;;;11.02;6.43;;;3.30;98.50;;;;;;5023260;28;20064;-79
2021/01/28 11:43:01;;;;;;;13.13;6.93;;;3.30;98.20;;;;;;5028854;28;20475;-79
2021/01/28 11:45:31;;;;;;;11.43;6.00;;;3.20;98.20;;;;;;5042303;28;20041;-79
2021/01/28 11:47:58;;;;;;;10.07;5.40;;;3.20;98.30;;;;;;5051939;28;20045;-79
2021/01/28 11:50:23;;;;;;;8.07;5.47;;;3.10;98.10;;;;;;5042094;28;20094;-79
2021/01/28 11:52:49;;;;;;;13.48;6.35;;;3.00;98.20;;;;;;5049014;28;20413;-80
2021/01/28 11:55:19;;;;;;;6.90;4.32;;;3.00;98.40;;;;;;5028163;28;20105;-81
2021/01/28 11:57:45;;;;;;;7.57;4.97;;;2.90;98.40;;;;;;5044124;28;20921;-82
2021/01/28 12:00:12;;;;;;;8.18;4.65;;;2.90;98.20;;;;;;5028794;28;20073;-81
2021/01/28 12:02:39;;;;;;;10.63;5.20;;;2.80;98.30;;;;;;5036571;28;20033;-82
2021/01/28 12:05:06;;;;;;;9.77;4.82;;;2.80;98.30;;;;;;5048161;28;20042;-81
2021/01/28 12:07:38;;;;;;;10.32;5.30;;;2.70;98.10;;;;;;5036869;28;20047;-81
2021/01/28 12:10:08;;;;;;;7.45;4.82;;;2.70;98.10;;;;;;5058709;28;20067;-82
2021/01/28 12:12:34;;;;;;;13.40;6.82;;;2.60;98.30;;;;;;5028030;28;20048;-83
2021/01/28 12:15:00;;;;;;;15.13;7.35;;;2.70;98.60;;;;;;5032445;28;20048;-81
2021/01/28 12:17:26;;;;;;;11.93;5.63;;;2.70;98.80;;;;;;5033162;28;20045;-81
2021/01/28 12:19:51;;;;;;;14.55;6.57;;;2.70;98.80;;;;;;5067962;28;20041;-81
2021/01/28 12:22:17;;;;;;;8.90;5.47;;;2.70;98.90;;;;;;5026571;28;20060;-80
2021/01/28 12:24:43;;;;;;;7.97;5.57;;;2.70;98.80;;;;;;5050159;28;20045;-80
2021/01/28 12:27:09;;;;;;;11.20;5.72;;;2.70;98.90;;;;;;5059008;28;20148;-81
2021/01/28 12:29:35;;;;;;;11.32;5.80;;;2.70;98.60;;;;;;5035219;28;20049;-79
2021/01/28 12:32:01;;;;;;;11.80;6.07;;;2.70;98.60;;;;;;5055640;28;20052;-81
2021/01/28 12:34:27;;;;;;;10.52;6.47;;;2.70;98.70;;;;;;5020304;28;20044;-81
2021/01/28 12:36:54;;;;;;;7.80;4.03;;;2.70;98.60;;;;;;5054969;28;20040;-82
2021/01/28 12:39:20;;;;;;;12.55;6.85;;;2.70;98.70;;;;;;5036193;28;20044;-82
2021/01/28 12:41:46;;;;;;;10.55;5.80;;;2.60;98.70;;;;;;5043114;28;20037;-84
2021/01/28 12:44:11;;;;;;;10.43;5.80;;;2.70;98.80;;;;;;5031415;28;20037;-83
2021/01/28 12:46:37;;;;;;;9.48;6.15;;;2.60;98.70;;;;;;5028822;28;20508;-84
2021/01/28 12:49:03;;;;;;;11.98;7.07;;;2.70;98.90;;;;;;5028407;28;20060;-84
2021/01/28 12:51:30;;;;;;;10.55;6.13;;;2.80;99.00;;;;;;5030294;28;20124;-84
2021/01/28 12:53:58;;;;;;;7.95;5.13;;;2.80;98.80;;;;;;5034332;28;20084;-84
2021/01/28 12:56:26;;;;;;;10.40;6.80;;;2.80;99.10;;;;;;5034314;28;20045;-83
2021/01/28 12:58:52;;;;;;;11.45;5.85;;;2.80;98.80;;;;;;5032982;28;20132;-84